sensor_id;sensor_type;location;lat;lon;timestamp;P1;durP1;ratioP1;P2;durP2;ratioP2
33138;SDS011;19501;50.948;5.316;2023-07-13T00:01:15;11.55;;;3.03;;
33138;SDS011;19501;50.948;5.316;2023-07-13T00:03:41;7.47;;;2.72;;
33138;SDS011;19501;50.948;5.316;2023-07-13T00:06:07;8.65;;;2.65;;
33138;SDS011;19501;50.948;5.316;2023-07-13T00:08:34;12.82;;;2.90;;
33138;SDS011;19501;50.948;5.316;2023-07-13T00:11:00;10.82;;;2.90;;
33138;SDS011;19501;50.948;5.316;2023-07-13T00:13:28;7.70;;;2.80;;
33138;SDS011;19501;50.948;5.316;2023-07-13T00:15:54;8.88;;;2.63;;
33138;SDS011;19501;50.948;5.316;2023-07-13T00:18:21;13.00;;;3.00;;
33138;SDS011;19501;50.948;5.316;2023-07-13T00:20:47;12.63;;;2.88;;
33138;SDS011;19501;50.948;5.316;2023-07-13T00:23:13;9.73;;;2.97;;
33138;SDS011;19501;50.948;5.316;2023-07-13T00:25:39;11.25;;;2.97;;
33138;SDS011;19501;50.948;5.316;2023-07-13T00:28:07;11.57;;;2.67;;
33138;SDS011;19501;50.948;5.316;2023-07-13T00:30:33;11.27;;;3.08;;
33138;SDS011;19501;50.948;5.316;2023-07-13T00:32:58;9.90;;;3.15;;
33138;SDS011;19501;50.948;5.316;2023-07-13T00:35:26;13.52;;;3.10;;
33138;SDS011;19501;50.948;5.316;2023-07-13T00:37:55;9.55;;;3.75;;
33138;SDS011;19501;50.948;5.316;2023-07-13T00:40:21;8.02;;;2.67;;
33138;SDS011;19501;50.948;5.316;2023-07-13T00:42:47;12.57;;;3.13;;
33138;SDS011;19501;50.948;5.316;2023-07-13T00:47:38;11.75;;;2.95;;
33138;SDS011;19501;50.948;5.316;2023-07-13T00:50:08;13.15;;;3.10;;
33138;SDS011;19501;50.948;5.316;2023-07-13T00:52:38;11.70;;;3.20;;
33138;SDS011;19501;50.948;5.316;2023-07-13T00:55:08;12.00;;;3.40;;
33138;SDS011;19501;50.948;5.316;2023-07-13T00:57:35;8.88;;;3.20;;
33138;SDS011;19501;50.948;5.316;2023-07-13T01:00:03;11.95;;;2.70;;
33138;SDS011;19501;50.948;5.316;2023-07-13T01:02:31;19.27;;;3.53;;
33138;SDS011;19501;50.948;5.316;2023-07-13T01:04:58;11.15;;;3.47;;
33138;SDS011;19501;50.948;5.316;2023-07-13T01:07:24;12.57;;;3.17;;
33138;SDS011;19501;50.948;5.316;2023-07-13T01:09:50;12.55;;;3.30;;
33138;SDS011;19501;50.948;5.316;2023-07-13T01:12:16;10.98;;;3.03;;
33138;SDS011;19501;50.948;5.316;2023-07-13T01:14:42;7.40;;;3.10;;
33138;SDS011;19501;50.948;5.316;2023-07-13T01:17:10;11.32;;;3.03;;
33138;SDS011;19501;50.948;5.316;2023-07-13T01:19:40;8.13;;;2.78;;
33138;SDS011;19501;50.948;5.316;2023-07-13T01:22:13;17.92;;;3.65;;
33138;SDS011;19501;50.948;5.316;2023-07-13T01:24:41;13.40;;;3.45;;
33138;SDS011;19501;50.948;5.316;2023-07-13T01:27:09;13.80;;;3.53;;
33138;SDS011;19501;50.948;5.316;2023-07-13T01:29:37;13.63;;;3.17;;
33138;SDS011;19501;50.948;5.316;2023-07-13T01:32:15;10.30;;;3.20;;
33138;SDS011;19501;50.948;5.316;2023-07-13T01:34:48;16.02;;;3.40;;
33138;SDS011;19501;50.948;5.316;2023-07-13T01:37:14;10.05;;;2.92;;
33138;SDS011;19501;50.948;5.316;2023-07-13T01:39:39;6.93;;;2.90;;
33138;SDS011;19501;50.948;5.316;2023-07-13T01:42:05;17.50;;;3.60;;
33138;SDS011;19501;50.948;5.316;2023-07-13T01:44:31;12.93;;;3.60;;
33138;SDS011;19501;50.948;5.316;2023-07-13T01:46:58;10.70;;;3.25;;
33138;SDS011;19501;50.948;5.316;2023-07-13T01:49:24;13.75;;;3.42;;
33138;SDS011;19501;50.948;5.316;2023-07-13T01:51:49;15.43;;;3.83;;
33138;SDS011;19501;50.948;5.316;2023-07-13T01:54:15;18.50;;;4.13;;
33138;SDS011;19501;50.948;5.316;2023-07-13T01:56:40;13.55;;;3.50;;
33138;SDS011;19501;50.948;5.316;2023-07-13T01:59:07;17.70;;;5.10;;
33138;SDS011;19501;50.948;5.316;2023-07-13T02:01:33;12.25;;;3.40;;
33138;SDS011;19501;50.948;5.316;2023-07-13T02:03:59;14.23;;;4.00;;
33138;SDS011;19501;50.948;5.316;2023-07-13T02:06:25;12.07;;;3.33;;
33138;SDS011;19501;50.948;5.316;2023-07-13T02:08:50;14.23;;;3.72;;
33138;SDS011;19501;50.948;5.316;2023-07-13T02:11:16;11.98;;;3.28;;
33138;SDS011;19501;50.948;5.316;2023-07-13T02:13:42;12.57;;;3.45;;
33138;SDS011;19501;50.948;5.316;2023-07-13T02:16:08;22.33;;;3.80;;
33138;SDS011;19501;50.948;5.316;2023-07-13T02:18:34;13.25;;;3.30;;
33138;SDS011;19501;50.948;5.316;2023-07-13T02:20:59;17.67;;;3.50;;
33138;SDS011;19501;50.948;5.316;2023-07-13T02:23:25;15.50;;;3.15;;
33138;SDS011;19501;50.948;5.316;2023-07-13T02:26:02;13.77;;;3.47;;
33138;SDS011;19501;50.948;5.316;2023-07-13T02:28:28;13.27;;;3.63;;
33138;SDS011;19501;50.948;5.316;2023-07-13T02:30:54;12.18;;;3.35;;
33138;SDS011;19501;50.948;5.316;2023-07-13T02:33:19;21.08;;;3.95;;
33138;SDS011;19501;50.948;5.316;2023-07-13T02:35:45;14.25;;;3.88;;
33138;SDS011;19501;50.948;5.316;2023-07-13T02:38:11;25.17;;;4.38;;
33138;SDS011;19501;50.948;5.316;2023-07-13T02:40:39;12.60;;;3.55;;
33138;SDS011;19501;50.948;5.316;2023-07-13T02:43:04;21.77;;;4.05;;
33138;SDS011;19501;50.948;5.316;2023-07-13T02:45:30;21.85;;;4.03;;
33138;SDS011;19501;50.948;5.316;2023-07-13T02:47:58;16.02;;;4.07;;
33138;SDS011;19501;50.948;5.316;2023-07-13T02:50:24;12.07;;;3.60;;
33138;SDS011;19501;50.948;5.316;2023-07-13T02:52:49;11.98;;;3.75;;
33138;SDS011;19501;50.948;5.316;2023-07-13T02:55:15;18.58;;;4.40;;
33138;SDS011;19501;50.948;5.316;2023-07-13T02:57:41;11.57;;;3.53;;
33138;SDS011;19501;50.948;5.316;2023-07-13T03:00:07;13.80;;;3.85;;
33138;SDS011;19501;50.948;5.316;2023-07-13T03:02:34;15.35;;;3.80;;
33138;SDS011;19501;50.948;5.316;2023-07-13T03:05:00;13.95;;;3.75;;
33138;SDS011;19501;50.948;5.316;2023-07-13T03:07:25;15.88;;;3.92;;
33138;SDS011;19501;50.948;5.316;2023-07-13T03:09:57;16.58;;;4.40;;
33138;SDS011;19501;50.948;5.316;2023-07-13T03:12:23;21.38;;;4.35;;
33138;SDS011;19501;50.948;5.316;2023-07-13T03:14:50;17.33;;;4.22;;
33138;SDS011;19501;50.948;5.316;2023-07-13T03:17:16;19.17;;;3.92;;
33138;SDS011;19501;50.948;5.316;2023-07-13T03:19:42;15.07;;;3.33;;
33138;SDS011;19501;50.948;5.316;2023-07-13T03:22:08;23.80;;;5.97;;
33138;SDS011;19501;50.948;5.316;2023-07-13T03:24:34;15.68;;;4.30;;
33138;SDS011;19501;50.948;5.316;2023-07-13T03:27:04;18.50;;;4.07;;
33138;SDS011;19501;50.948;5.316;2023-07-13T03:29:30;14.05;;;3.65;;
33138;SDS011;19501;50.948;5.316;2023-07-13T03:31:56;16.85;;;5.40;;
33138;SDS011;19501;50.948;5.316;2023-07-13T03:34:22;18.17;;;4.20;;
33138;SDS011;19501;50.948;5.316;2023-07-13T03:36:47;18.85;;;4.00;;
33138;SDS011;19501;50.948;5.316;2023-07-13T03:39:13;17.33;;;3.90;;
33138;SDS011;19501;50.948;5.316;2023-07-13T03:41:39;20.63;;;4.28;;
33138;SDS011;19501;50.948;5.316;2023-07-13T03:44:05;12.00;;;4.13;;
33138;SDS011;19501;50.948;5.316;2023-07-13T03:46:31;18.20;;;4.40;;
33138;SDS011;19501;50.948;5.316;2023-07-13T03:48:58;20.13;;;5.18;;
33138;SDS011;19501;50.948;5.316;2023-07-13T03:51:24;20.35;;;5.03;;
33138;SDS011;19501;50.948;5.316;2023-07-13T03:53:49;14.38;;;3.50;;
33138;SDS011;19501;50.948;5.316;2023-07-13T03:56:16;16.40;;;4.30;;
33138;SDS011;19501;50.948;5.316;2023-07-13T03:58:43;18.45;;;4.90;;
33138;SDS011;19501;50.948;5.316;2023-07-13T04:01:13;14.55;;;4.03;;
33138;SDS011;19501;50.948;5.316;2023-07-13T04:03:40;18.50;;;4.25;;
33138;SDS011;19501;50.948;5.316;2023-07-13T04:06:07;21.13;;;4.97;;
33138;SDS011;19501;50.948;5.316;2023-07-13T04:08:47;16.90;;;4.35;;
33138;SDS011;19501;50.948;5.316;2023-07-13T04:11:14;13.88;;;4.05;;
33138;SDS011;19501;50.948;5.316;2023-07-13T04:13:40;20.58;;;4.40;;
33138;SDS011;19501;50.948;5.316;2023-07-13T04:16:05;13.88;;;4.70;;
33138;SDS011;19501;50.948;5.316;2023-07-13T04:18:31;17.08;;;4.15;;
33138;SDS011;19501;50.948;5.316;2023-07-13T04:21:01;16.35;;;4.90;;
33138;SDS011;19501;50.948;5.316;2023-07-13T04:23:27;15.60;;;4.40;;
33138;SDS011;19501;50.948;5.316;2023-07-13T04:25:52;15.10;;;4.47;;
33138;SDS011;19501;50.948;5.316;2023-07-13T04:28:22;15.75;;;4.10;;
33138;SDS011;19501;50.948;5.316;2023-07-13T04:30:49;15.77;;;4.18;;
33138;SDS011;19501;50.948;5.316;2023-07-13T04:33:15;18.05;;;4.35;;
33138;SDS011;19501;50.948;5.316;2023-07-13T04:35:47;14.20;;;4.32;;
33138;SDS011;19501;50.948;5.316;2023-07-13T04:38:13;15.52;;;4.70;;
33138;SDS011;19501;50.948;5.316;2023-07-13T04:40:42;14.60;;;3.92;;
33138;SDS011;19501;50.948;5.316;2023-07-13T04:43:10;19.23;;;4.32;;
33138;SDS011;19501;50.948;5.316;2023-07-13T04:45:36;17.95;;;4.18;;
33138;SDS011;19501;50.948;5.316;2023-07-13T04:48:01;20.38;;;4.45;;
33138;SDS011;19501;50.948;5.316;2023-07-13T04:50:27;17.30;;;4.63;;
33138;SDS011;19501;50.948;5.316;2023-07-13T04:52:53;21.40;;;5.75;;
33138;SDS011;19501;50.948;5.316;2023-07-13T04:55:19;21.48;;;4.85;;
33138;SDS011;19501;50.948;5.316;2023-07-13T04:57:45;19.00;;;4.65;;
33138;SDS011;19501;50.948;5.316;2023-07-13T05:00:11;18.40;;;4.60;;
33138;SDS011;19501;50.948;5.316;2023-07-13T05:02:38;18.08;;;4.63;;
33138;SDS011;19501;50.948;5.316;2023-07-13T05:05:04;21.92;;;5.22;;
33138;SDS011;19501;50.948;5.316;2023-07-13T05:07:31;20.35;;;4.55;;
33138;SDS011;19501;50.948;5.316;2023-07-13T05:09:58;24.05;;;4.65;;
33138;SDS011;19501;50.948;5.316;2023-07-13T05:12:24;15.70;;;4.97;;
33138;SDS011;19501;50.948;5.316;2023-07-13T05:14:50;22.90;;;4.40;;
33138;SDS011;19501;50.948;5.316;2023-07-13T05:17:16;15.80;;;5.07;;
33138;SDS011;19501;50.948;5.316;2023-07-13T05:19:42;20.88;;;4.50;;
33138;SDS011;19501;50.948;5.316;2023-07-13T05:22:08;23.98;;;6.78;;
33138;SDS011;19501;50.948;5.316;2023-07-13T05:24:33;14.80;;;4.60;;
33138;SDS011;19501;50.948;5.316;2023-07-13T05:26:59;20.77;;;5.38;;
33138;SDS011;19501;50.948;5.316;2023-07-13T05:29:24;22.65;;;5.47;;
33138;SDS011;19501;50.948;5.316;2023-07-13T05:31:50;16.80;;;4.05;;
33138;SDS011;19501;50.948;5.316;2023-07-13T05:34:16;24.75;;;4.93;;
33138;SDS011;19501;50.948;5.316;2023-07-13T05:36:42;21.25;;;6.00;;
33138;SDS011;19501;50.948;5.316;2023-07-13T05:39:08;15.80;;;4.93;;
33138;SDS011;19501;50.948;5.316;2023-07-13T05:41:35;16.70;;;4.22;;
33138;SDS011;19501;50.948;5.316;2023-07-13T05:44:03;22.90;;;4.80;;
33138;SDS011;19501;50.948;5.316;2023-07-13T05:46:29;20.48;;;5.30;;
33138;SDS011;19501;50.948;5.316;2023-07-13T05:48:54;17.17;;;5.18;;
33138;SDS011;19501;50.948;5.316;2023-07-13T05:51:20;18.17;;;4.93;;
33138;SDS011;19501;50.948;5.316;2023-07-13T05:53:45;22.83;;;4.75;;
33138;SDS011;19501;50.948;5.316;2023-07-13T05:56:11;18.05;;;4.70;;
33138;SDS011;19501;50.948;5.316;2023-07-13T05:58:37;18.55;;;5.63;;
33138;SDS011;19501;50.948;5.316;2023-07-13T06:01:04;25.55;;;5.30;;
33138;SDS011;19501;50.948;5.316;2023-07-13T06:03:32;20.63;;;4.95;;
33138;SDS011;19501;50.948;5.316;2023-07-13T06:05:58;16.52;;;5.13;;
33138;SDS011;19501;50.948;5.316;2023-07-13T06:08:27;13.93;;;4.35;;
33138;SDS011;19501;50.948;5.316;2023-07-13T06:10:53;22.50;;;4.93;;
33138;SDS011;19501;50.948;5.316;2023-07-13T06:13:18;16.48;;;4.50;;
33138;SDS011;19501;50.948;5.316;2023-07-13T06:15:50;22.27;;;6.15;;
33138;SDS011;19501;50.948;5.316;2023-07-13T06:18:18;21.90;;;6.30;;
33138;SDS011;19501;50.948;5.316;2023-07-13T06:20:44;19.08;;;4.75;;
33138;SDS011;19501;50.948;5.316;2023-07-13T06:23:09;21.50;;;5.43;;
33138;SDS011;19501;50.948;5.316;2023-07-13T06:25:35;17.00;;;4.88;;
33138;SDS011;19501;50.948;5.316;2023-07-13T06:28:03;20.42;;;5.43;;
33138;SDS011;19501;50.948;5.316;2023-07-13T06:30:28;23.50;;;5.43;;
33138;SDS011;19501;50.948;5.316;2023-07-13T06:32:54;25.00;;;6.45;;
33138;SDS011;19501;50.948;5.316;2023-07-13T06:35:20;20.20;;;5.50;;
33138;SDS011;19501;50.948;5.316;2023-07-13T06:37:46;25.02;;;7.07;;
33138;SDS011;19501;50.948;5.316;2023-07-13T06:40:12;22.20;;;6.65;;
33138;SDS011;19501;50.948;5.316;2023-07-13T06:42:38;19.85;;;5.60;;
33138;SDS011;19501;50.948;5.316;2023-07-13T06:45:03;23.80;;;5.90;;
33138;SDS011;19501;50.948;5.316;2023-07-13T06:47:30;21.88;;;5.63;;
33138;SDS011;19501;50.948;5.316;2023-07-13T06:49:55;25.90;;;6.35;;
33138;SDS011;19501;50.948;5.316;2023-07-13T06:52:22;21.92;;;6.28;;
33138;SDS011;19501;50.948;5.316;2023-07-13T06:54:48;22.42;;;5.35;;
33138;SDS011;19501;50.948;5.316;2023-07-13T06:57:13;20.85;;;5.68;;
33138;SDS011;19501;50.948;5.316;2023-07-13T06:59:39;23.48;;;6.07;;
33138;SDS011;19501;50.948;5.316;2023-07-13T07:02:04;28.45;;;5.88;;
33138;SDS011;19501;50.948;5.316;2023-07-13T07:04:31;19.27;;;5.60;;
33138;SDS011;19501;50.948;5.316;2023-07-13T07:06:56;20.35;;;5.30;;
33138;SDS011;19501;50.948;5.316;2023-07-13T07:09:22;25.08;;;5.75;;
33138;SDS011;19501;50.948;5.316;2023-07-13T07:11:47;22.58;;;5.82;;
33138;SDS011;19501;50.948;5.316;2023-07-13T07:14:13;21.48;;;5.70;;
33138;SDS011;19501;50.948;5.316;2023-07-13T07:16:39;20.52;;;5.10;;
33138;SDS011;19501;50.948;5.316;2023-07-13T07:19:04;21.52;;;5.28;;
33138;SDS011;19501;50.948;5.316;2023-07-13T07:21:30;23.67;;;6.53;;
33138;SDS011;19501;50.948;5.316;2023-07-13T07:23:56;22.23;;;5.63;;
33138;SDS011;19501;50.948;5.316;2023-07-13T07:26:22;21.20;;;5.22;;
33138;SDS011;19501;50.948;5.316;2023-07-13T07:28:47;22.27;;;5.95;;
33138;SDS011;19501;50.948;5.316;2023-07-13T07:31:13;20.70;;;5.85;;
33138;SDS011;19501;50.948;5.316;2023-07-13T07:33:39;19.00;;;5.40;;
33138;SDS011;19501;50.948;5.316;2023-07-13T07:36:04;25.65;;;6.03;;
33138;SDS011;19501;50.948;5.316;2023-07-13T07:38:30;33.47;;;9.55;;
33138;SDS011;19501;50.948;5.316;2023-07-13T07:40:56;21.00;;;5.43;;
33138;SDS011;19501;50.948;5.316;2023-07-13T07:43:21;20.10;;;5.72;;
33138;SDS011;19501;50.948;5.316;2023-07-13T07:45:47;21.80;;;6.72;;
33138;SDS011;19501;50.948;5.316;2023-07-13T07:48:13;25.10;;;6.45;;
33138;SDS011;19501;50.948;5.316;2023-07-13T07:50:38;24.25;;;6.43;;
33138;SDS011;19501;50.948;5.316;2023-07-13T07:53:05;19.48;;;5.82;;
33138;SDS011;19501;50.948;5.316;2023-07-13T07:55:35;18.25;;;5.57;;
33138;SDS011;19501;50.948;5.316;2023-07-13T07:58:01;20.63;;;5.38;;
33138;SDS011;19501;50.948;5.316;2023-07-13T08:00:27;20.83;;;6.28;;
33138;SDS011;19501;50.948;5.316;2023-07-13T08:02:56;29.27;;;6.72;;
33138;SDS011;19501;50.948;5.316;2023-07-13T08:05:22;18.17;;;6.43;;
33138;SDS011;19501;50.948;5.316;2023-07-13T08:07:47;24.33;;;5.72;;
33138;SDS011;19501;50.948;5.316;2023-07-13T08:10:13;19.75;;;5.65;;
33138;SDS011;19501;50.948;5.316;2023-07-13T08:12:39;21.30;;;5.60;;
33138;SDS011;19501;50.948;5.316;2023-07-13T08:15:06;19.30;;;5.57;;
33138;SDS011;19501;50.948;5.316;2023-07-13T08:17:36;18.00;;;5.97;;
33138;SDS011;19501;50.948;5.316;2023-07-13T08:20:02;19.52;;;5.32;;
33138;SDS011;19501;50.948;5.316;2023-07-13T08:22:27;19.90;;;5.20;;
33138;SDS011;19501;50.948;5.316;2023-07-13T08:24:53;24.75;;;5.95;;
33138;SDS011;19501;50.948;5.316;2023-07-13T08:27:22;17.48;;;5.63;;
33138;SDS011;19501;50.948;5.316;2023-07-13T08:29:49;21.90;;;5.20;;
33138;SDS011;19501;50.948;5.316;2023-07-13T08:32:14;18.83;;;5.75;;
33138;SDS011;19501;50.948;5.316;2023-07-13T08:34:40;21.25;;;5.22;;
33138;SDS011;19501;50.948;5.316;2023-07-13T08:37:06;17.63;;;5.32;;
33138;SDS011;19501;50.948;5.316;2023-07-13T08:39:32;16.17;;;6.13;;
33138;SDS011;19501;50.948;5.316;2023-07-13T08:42:03;21.35;;;5.93;;
33138;SDS011;19501;50.948;5.316;2023-07-13T08:47:07;16.92;;;4.85;;
33138;SDS011;19501;50.948;5.316;2023-07-13T08:49:36;16.67;;;4.90;;
33138;SDS011;19501;50.948;5.316;2023-07-13T08:52:04;24.92;;;5.93;;
33138;SDS011;19501;50.948;5.316;2023-07-13T08:54:49;32.22;;;6.68;;
33138;SDS011;19501;50.948;5.316;2023-07-13T08:57:18;18.25;;;4.63;;
33138;SDS011;19501;50.948;5.316;2023-07-13T08:59:46;23.02;;;5.10;;
33138;SDS011;19501;50.948;5.316;2023-07-13T09:05:18;15.55;;;4.90;;
33138;SDS011;19501;50.948;5.316;2023-07-13T09:10:41;18.83;;;5.35;;
33138;SDS011;19501;50.948;5.316;2023-07-13T09:13:14;19.85;;;6.07;;
33138;SDS011;19501;50.948;5.316;2023-07-13T09:15:43;20.45;;;4.85;;
33138;SDS011;19501;50.948;5.316;2023-07-13T09:18:14;16.98;;;4.53;;
33138;SDS011;19501;50.948;5.316;2023-07-13T09:20:50;21.65;;;5.57;;
33138;SDS011;19501;50.948;5.316;2023-07-13T09:23:23;17.15;;;4.68;;
33138;SDS011;19501;50.948;5.316;2023-07-13T09:25:54;16.83;;;4.70;;
33138;SDS011;19501;50.948;5.316;2023-07-13T09:28:59;17.25;;;4.45;;
33138;SDS011;19501;50.948;5.316;2023-07-13T09:31:39;15.68;;;4.75;;
33138;SDS011;19501;50.948;5.316;2023-07-13T09:34:11;18.02;;;4.47;;
33138;SDS011;19501;50.948;5.316;2023-07-13T09:36:38;17.40;;;4.65;;
33138;SDS011;19501;50.948;5.316;2023-07-13T09:41:49;14.40;;;4.20;;
33138;SDS011;19501;50.948;5.316;2023-07-13T09:44:58;15.75;;;4.78;;
33138;SDS011;19501;50.948;5.316;2023-07-13T09:47:30;14.23;;;4.10;;
33138;SDS011;19501;50.948;5.316;2023-07-13T09:50:04;18.05;;;4.32;;
33138;SDS011;19501;50.948;5.316;2023-07-13T09:55:30;15.88;;;4.50;;
33138;SDS011;19501;50.948;5.316;2023-07-13T10:00:57;11.57;;;3.40;;
33138;SDS011;19501;50.948;5.316;2023-07-13T10:03:24;10.48;;;3.55;;
33138;SDS011;19501;50.948;5.316;2023-07-13T10:08:26;14.43;;;4.20;;
33138;SDS011;19501;50.948;5.316;2023-07-13T10:10:59;17.05;;;3.83;;
33138;SDS011;19501;50.948;5.316;2023-07-13T10:13:27;11.73;;;3.83;;
33138;SDS011;19501;50.948;5.316;2023-07-13T10:16:10;13.50;;;3.83;;
33138;SDS011;19501;50.948;5.316;2023-07-13T10:18:42;10.90;;;3.40;;
33138;SDS011;19501;50.948;5.316;2023-07-13T10:21:17;11.32;;;3.58;;
33138;SDS011;19501;50.948;5.316;2023-07-13T10:23:55;15.23;;;3.85;;
33138;SDS011;19501;50.948;5.316;2023-07-13T10:26:31;14.43;;;3.83;;
33138;SDS011;19501;50.948;5.316;2023-07-13T10:29:02;13.52;;;4.35;;
33138;SDS011;19501;50.948;5.316;2023-07-13T10:31:33;13.80;;;3.80;;
33138;SDS011;19501;50.948;5.316;2023-07-13T10:34:02;13.73;;;3.88;;
33138;SDS011;19501;50.948;5.316;2023-07-13T10:36:30;10.82;;;3.30;;
33138;SDS011;19501;50.948;5.316;2023-07-13T10:39:04;14.82;;;3.70;;
33138;SDS011;19501;50.948;5.316;2023-07-13T10:41:31;12.55;;;3.38;;
33138;SDS011;19501;50.948;5.316;2023-07-13T10:44:01;17.98;;;3.83;;
33138;SDS011;19501;50.948;5.316;2023-07-13T10:46:29;11.73;;;3.65;;
33138;SDS011;19501;50.948;5.316;2023-07-13T10:48:59;13.50;;;3.40;;
33138;SDS011;19501;50.948;5.316;2023-07-13T10:51:29;14.80;;;3.75;;
33138;SDS011;19501;50.948;5.316;2023-07-13T10:56:36;12.80;;;4.15;;
33138;SDS011;19501;50.948;5.316;2023-07-13T11:01:48;11.40;;;3.45;;
33138;SDS011;19501;50.948;5.316;2023-07-13T11:04:43;13.05;;;3.70;;
33138;SDS011;19501;50.948;5.316;2023-07-13T11:07:22;10.80;;;3.38;;
33138;SDS011;19501;50.948;5.316;2023-07-13T11:10:02;11.85;;;3.47;;
33138;SDS011;19501;50.948;5.316;2023-07-13T11:15:27;12.07;;;3.40;;
33138;SDS011;19501;50.948;5.316;2023-07-13T11:17:57;11.45;;;3.58;;
33138;SDS011;19501;50.948;5.316;2023-07-13T11:20:32;12.75;;;4.75;;
33138;SDS011;19501;50.948;5.316;2023-07-13T11:25:37;10.52;;;3.45;;
33138;SDS011;19501;50.948;5.316;2023-07-13T11:28:05;9.13;;;2.80;;
33138;SDS011;19501;50.948;5.316;2023-07-13T11:30:40;11.13;;;3.30;;
33138;SDS011;19501;50.948;5.316;2023-07-13T11:35:41;7.88;;;2.55;;
33138;SDS011;19501;50.948;5.316;2023-07-13T11:38:27;7.68;;;2.83;;
33138;SDS011;19501;50.948;5.316;2023-07-13T11:40:56;10.00;;;3.10;;
33138;SDS011;19501;50.948;5.316;2023-07-13T11:43:28;11.95;;;3.35;;
33138;SDS011;19501;50.948;5.316;2023-07-13T11:45:53;11.32;;;3.20;;
33138;SDS011;19501;50.948;5.316;2023-07-13T11:48:20;7.78;;;2.63;;
33138;SDS011;19501;50.948;5.316;2023-07-13T11:50:51;7.45;;;3.15;;
33138;SDS011;19501;50.948;5.316;2023-07-13T11:53:31;10.32;;;3.10;;
33138;SDS011;19501;50.948;5.316;2023-07-13T11:56:12;11.32;;;3.35;;
33138;SDS011;19501;50.948;5.316;2023-07-13T11:58:38;12.63;;;3.10;;
33138;SDS011;19501;50.948;5.316;2023-07-13T12:01:04;8.10;;;2.90;;
33138;SDS011;19501;50.948;5.316;2023-07-13T12:03:31;13.38;;;4.05;;
33138;SDS011;19501;50.948;5.316;2023-07-13T12:06:00;8.35;;;3.35;;
33138;SDS011;19501;50.948;5.316;2023-07-13T12:08:27;9.40;;;3.42;;
33138;SDS011;19501;50.948;5.316;2023-07-13T12:10:58;6.47;;;2.90;;
33138;SDS011;19501;50.948;5.316;2023-07-13T12:13:26;10.70;;;3.27;;
33138;SDS011;19501;50.948;5.316;2023-07-13T12:15:54;13.68;;;3.20;;
33138;SDS011;19501;50.948;5.316;2023-07-13T12:18:22;8.07;;;3.00;;
33138;SDS011;19501;50.948;5.316;2023-07-13T12:20:57;9.88;;;3.33;;
33138;SDS011;19501;50.948;5.316;2023-07-13T12:25:57;12.98;;;3.60;;
33138;SDS011;19501;50.948;5.316;2023-07-13T12:28:34;12.45;;;3.00;;
33138;SDS011;19501;50.948;5.316;2023-07-13T12:31:19;13.02;;;3.08;;
33138;SDS011;19501;50.948;5.316;2023-07-13T12:34:12;16.30;;;3.20;;
33138;SDS011;19501;50.948;5.316;2023-07-13T12:36:46;9.18;;;3.67;;
33138;SDS011;19501;50.948;5.316;2023-07-13T12:41:41;8.63;;;3.03;;
33138;SDS011;19501;50.948;5.316;2023-07-13T12:44:14;13.93;;;3.22;;
33138;SDS011;19501;50.948;5.316;2023-07-13T12:46:52;6.83;;;2.70;;
33138;SDS011;19501;50.948;5.316;2023-07-13T12:49:23;7.50;;;3.28;;
33138;SDS011;19501;50.948;5.316;2023-07-13T12:51:55;11.60;;;3.15;;
33138;SDS011;19501;50.948;5.316;2023-07-13T12:54:24;12.00;;;3.30;;
33138;SDS011;19501;50.948;5.316;2023-07-13T12:56:49;7.35;;;3.25;;
33138;SDS011;19501;50.948;5.316;2023-07-13T12:59:20;10.98;;;3.13;;
33138;SDS011;19501;50.948;5.316;2023-07-13T13:01:46;9.52;;;2.92;;
33138;SDS011;19501;50.948;5.316;2023-07-13T13:04:14;8.13;;;2.85;;
33138;SDS011;19501;50.948;5.316;2023-07-13T13:06:40;13.27;;;3.22;;
33138;SDS011;19501;50.948;5.316;2023-07-13T13:09:12;8.52;;;3.05;;
33138;SDS011;19501;50.948;5.316;2023-07-13T13:11:39;9.65;;;2.97;;
33138;SDS011;19501;50.948;5.316;2023-07-13T13:14:05;10.68;;;3.20;;
33138;SDS011;19501;50.948;5.316;2023-07-13T13:16:47;10.52;;;2.90;;
33138;SDS011;19501;50.948;5.316;2023-07-13T13:19:26;9.25;;;2.90;;
33138;SDS011;19501;50.948;5.316;2023-07-13T13:21:54;9.55;;;2.92;;
33138;SDS011;19501;50.948;5.316;2023-07-13T13:24:24;10.95;;;3.25;;
33138;SDS011;19501;50.948;5.316;2023-07-13T13:26:52;10.20;;;3.15;;
33138;SDS011;19501;50.948;5.316;2023-07-13T13:29:25;12.68;;;3.28;;
33138;SDS011;19501;50.948;5.316;2023-07-13T13:31:51;9.27;;;3.42;;
33138;SDS011;19501;50.948;5.316;2023-07-13T13:34:19;10.65;;;3.45;;
33138;SDS011;19501;50.948;5.316;2023-07-13T13:36:48;12.18;;;3.60;;
33138;SDS011;19501;50.948;5.316;2023-07-13T13:39:21;7.55;;;3.20;;
33138;SDS011;19501;50.948;5.316;2023-07-13T13:41:54;10.40;;;3.55;;
33138;SDS011;19501;50.948;5.316;2023-07-13T13:44:20;5.47;;;3.00;;
33138;SDS011;19501;50.948;5.316;2023-07-13T13:46:48;12.70;;;3.13;;
33138;SDS011;19501;50.948;5.316;2023-07-13T13:49:21;7.05;;;3.10;;
33138;SDS011;19501;50.948;5.316;2023-07-13T13:51:49;7.65;;;3.35;;
33138;SDS011;19501;50.948;5.316;2023-07-13T13:54:16;9.18;;;3.78;;
33138;SDS011;19501;50.948;5.316;2023-07-13T13:56:43;6.80;;;3.50;;
33138;SDS011;19501;50.948;5.316;2023-07-13T13:59:11;10.07;;;3.90;;
33138;SDS011;19501;50.948;5.316;2023-07-13T14:01:37;10.02;;;3.28;;
33138;SDS011;19501;50.948;5.316;2023-07-13T14:04:04;11.48;;;3.50;;
33138;SDS011;19501;50.948;5.316;2023-07-13T14:06:33;12.93;;;3.80;;
33138;SDS011;19501;50.948;5.316;2023-07-13T14:09:01;9.70;;;3.45;;
33138;SDS011;19501;50.948;5.316;2023-07-13T14:11:27;8.15;;;3.38;;
33138;SDS011;19501;50.948;5.316;2023-07-13T14:13:56;9.95;;;3.40;;
33138;SDS011;19501;50.948;5.316;2023-07-13T14:16:26;8.45;;;3.50;;
33138;SDS011;19501;50.948;5.316;2023-07-13T14:18:54;8.15;;;3.60;;
33138;SDS011;19501;50.948;5.316;2023-07-13T14:21:23;9.73;;;3.88;;
33138;SDS011;19501;50.948;5.316;2023-07-13T14:23:49;10.02;;;3.42;;
33138;SDS011;19501;50.948;5.316;2023-07-13T14:26:18;6.70;;;3.28;;
33138;SDS011;19501;50.948;5.316;2023-07-13T14:28:47;7.68;;;3.42;;
33138;SDS011;19501;50.948;5.316;2023-07-13T14:31:14;9.40;;;3.63;;
33138;SDS011;19501;50.948;5.316;2023-07-13T14:33:41;11.82;;;3.60;;
33138;SDS011;19501;50.948;5.316;2023-07-13T14:39:21;10.95;;;3.67;;
33138;SDS011;19501;50.948;5.316;2023-07-13T14:41:53;10.25;;;3.63;;
33138;SDS011;19501;50.948;5.316;2023-07-13T14:44:21;12.38;;;3.80;;
33138;SDS011;19501;50.948;5.316;2023-07-13T14:46:50;9.85;;;3.40;;
33138;SDS011;19501;50.948;5.316;2023-07-13T14:49:28;9.23;;;3.67;;
33138;SDS011;19501;50.948;5.316;2023-07-13T14:52:00;8.68;;;3.50;;
33138;SDS011;19501;50.948;5.316;2023-07-13T14:54:28;7.75;;;3.28;;
33138;SDS011;19501;50.948;5.316;2023-07-13T14:56:54;9.73;;;3.45;;
33138;SDS011;19501;50.948;5.316;2023-07-13T14:59:20;6.90;;;3.10;;
33138;SDS011;19501;50.948;5.316;2023-07-13T15:01:46;6.03;;;3.10;;
33138;SDS011;19501;50.948;5.316;2023-07-13T15:04:13;9.77;;;3.22;;
33138;SDS011;19501;50.948;5.316;2023-07-13T15:06:59;5.45;;;3.00;;
33138;SDS011;19501;50.948;5.316;2023-07-13T15:09:27;7.70;;;2.80;;
33138;SDS011;19501;50.948;5.316;2023-07-13T15:11:57;12.25;;;4.05;;
33138;SDS011;19501;50.948;5.316;2023-07-13T15:14:23;6.18;;;2.95;;
33138;SDS011;19501;50.948;5.316;2023-07-13T15:16:50;7.68;;;2.92;;
33138;SDS011;19501;50.948;5.316;2023-07-13T15:19:19;6.57;;;2.95;;
33138;SDS011;19501;50.948;5.316;2023-07-13T15:21:49;7.22;;;2.92;;
33138;SDS011;19501;50.948;5.316;2023-07-13T15:24:17;7.28;;;2.90;;
33138;SDS011;19501;50.948;5.316;2023-07-13T15:26:42;5.90;;;2.80;;